sensor_id;sensor_type;location;lat;lon;timestamp;pressure;altitude;pressure_sealevel;temperature
71630;BMP280;59479;51.902;8.212;2023-02-02T00:00:44;101273.78;;;6.19
71630;BMP280;59479;51.902;8.212;2023-02-02T00:03:10;101272.91;;;6.17
71630;BMP280;59479;51.902;8.212;2023-02-02T00:05:35;101269.66;;;6.21
71630;BMP280;59479;51.902;8.212;2023-02-02T00:08:01;101286.63;;;6.32
71630;BMP280;59479;51.902;8.212;2023-02-02T00:10:26;101280.84;;;6.33
71630;BMP280;59479;51.902;8.212;2023-02-02T00:12:52;101284.22;;;6.35
71630;BMP280;59479;51.902;8.212;2023-02-02T00:15:18;101277.34;;;6.27
71630;BMP280;59479;51.902;8.212;2023-02-02T00:17:44;101270.69;;;6.27
71630;BMP280;59479;51.902;8.212;2023-02-02T00:20:09;101282.47;;;6.31
71630;BMP280;59479;51.902;8.212;2023-02-02T00:22:35;101276.56;;;6.29
71630;BMP280;59479;51.902;8.212;2023-02-02T00:25:00;101277.47;;;6.31
71630;BMP280;59479;51.902;8.212;2023-02-02T00:27:25;101279.78;;;6.25
71630;BMP280;59479;51.902;8.212;2023-02-02T00:29:51;101271.88;;;6.10
71630;BMP280;59479;51.902;8.212;2023-02-02T00:32:18;101273.09;;;6.24
71630;BMP280;59479;51.902;8.212;2023-02-02T00:34:44;101272.34;;;6.27
71630;BMP280;59479;51.902;8.212;2023-02-02T00:37:09;101264.16;;;6.32
71630;BMP280;59479;51.902;8.212;2023-02-02T00:39:35;101278.34;;;6.33
71630;BMP280;59479;51.902;8.212;2023-02-02T00:42:00;101275.84;;;6.33
71630;BMP280;59479;51.902;8.212;2023-02-02T00:44:25;101280.56;;;6.24
71630;BMP280;59479;51.902;8.212;2023-02-02T00:47:10;101274.56;;;6.16
71630;BMP280;59479;51.902;8.212;2023-02-02T00:49:35;101280.25;;;6.12
71630;BMP280;59479;51.902;8.212;2023-02-02T00:52:01;101280.13;;;6.08
71630;BMP280;59479;51.902;8.212;2023-02-02T00:54:26;101277.16;;;6.21
71630;BMP280;59479;51.902;8.212;2023-02-02T00:56:52;101289.63;;;6.21
71630;BMP280;59479;51.902;8.212;2023-02-02T00:59:17;101288.94;;;6.25
71630;BMP280;59479;51.902;8.212;2023-02-02T01:01:42;101287.19;;;6.22
71630;BMP280;59479;51.902;8.212;2023-02-02T01:04:08;101285.38;;;6.17
71630;BMP280;59479;51.902;8.212;2023-02-02T01:06:33;101291.38;;;6.23
71630;BMP280;59479;51.902;8.212;2023-02-02T01:08:59;101285.47;;;6.20
71630;BMP280;59479;51.902;8.212;2023-02-02T01:11:24;101293.78;;;6.20
71630;BMP280;59479;51.902;8.212;2023-02-02T01:13:50;101293.06;;;6.24
71630;BMP280;59479;51.902;8.212;2023-02-02T01:16:15;101292.66;;;6.09
71630;BMP280;59479;51.902;8.212;2023-02-02T01:18:41;101301.72;;;6.07
71630;BMP280;59479;51.902;8.212;2023-02-02T01:21:08;101307.63;;;6.09
71630;BMP280;59479;51.902;8.212;2023-02-02T01:23:35;101302.22;;;5.94
71630;BMP280;59479;51.902;8.212;2023-02-02T01:26:07;101308.09;;;5.96
71630;BMP280;59479;51.902;8.212;2023-02-02T01:28:32;101304.88;;;6.00
71630;BMP280;59479;51.902;8.212;2023-02-02T01:31:07;101302.25;;;5.96
71630;BMP280;59479;51.902;8.212;2023-02-02T01:33:33;101307.16;;;5.93
71630;BMP280;59479;51.902;8.212;2023-02-02T01:36:03;101306.97;;;5.87
71630;BMP280;59479;51.902;8.212;2023-02-02T01:38:29;101305.19;;;5.83
71630;BMP280;59479;51.902;8.212;2023-02-02T01:40:56;101310.22;;;5.85
71630;BMP280;59479;51.902;8.212;2023-02-02T01:43:29;101314.53;;;5.90
71630;BMP280;59479;51.902;8.212;2023-02-02T01:45:56;101308.72;;;5.89
71630;BMP280;59479;51.902;8.212;2023-02-02T01:48:28;101311.38;;;5.95
71630;BMP280;59479;51.902;8.212;2023-02-02T01:50:59;101318.59;;;5.86
71630;BMP280;59479;51.902;8.212;2023-02-02T01:53:26;101322.13;;;5.93
71630;BMP280;59479;51.902;8.212;2023-02-02T01:55:52;101331.69;;;5.80
71630;BMP280;59479;51.902;8.212;2023-02-02T01:58:22;101323.50;;;5.84
71630;BMP280;59479;51.902;8.212;2023-02-02T02:00:49;101333.56;;;5.86
71630;BMP280;59479;51.902;8.212;2023-02-02T02:03:17;101334.41;;;5.87
71630;BMP280;59479;51.902;8.212;2023-02-02T02:08:23;101335.44;;;5.93
71630;BMP280;59479;51.902;8.212;2023-02-02T02:10:50;101330.34;;;5.90
71630;BMP280;59479;51.902;8.212;2023-02-02T02:13:15;101340.78;;;5.78
71630;BMP280;59479;51.902;8.212;2023-02-02T02:16:10;101335.88;;;5.81
71630;BMP280;59479;51.902;8.212;2023-02-02T02:24:44;101337.19;;;5.97
71630;BMP280;59479;51.902;8.212;2023-02-02T02:30:28;101330.88;;;6.08
71630;BMP280;59479;51.902;8.212;2023-02-02T02:33:04;101345.50;;;5.96
71630;BMP280;59479;51.902;8.212;2023-02-02T02:35:41;101343.16;;;6.01
71630;BMP280;59479;51.902;8.212;2023-02-02T02:41:00;101342.28;;;6.00
71630;BMP280;59479;51.902;8.212;2023-02-02T02:43:53;101345.19;;;6.14
71630;BMP280;59479;51.902;8.212;2023-02-02T02:46:20;101346.88;;;6.15
71630;BMP280;59479;51.902;8.212;2023-02-02T02:48:46;101355.06;;;6.09
71630;BMP280;59479;51.902;8.212;2023-02-02T02:51:49;101349.34;;;6.13
71630;BMP280;59479;51.902;8.212;2023-02-02T02:54:16;101351.03;;;6.14
71630;BMP280;59479;51.902;8.212;2023-02-02T02:59:36;101347.09;;;6.22
71630;BMP280;59479;51.902;8.212;2023-02-02T03:02:20;101347.81;;;6.18
71630;BMP280;59479;51.902;8.212;2023-02-02T03:05:03;101352.91;;;6.21
71630;BMP280;59479;51.902;8.212;2023-02-02T03:07:40;101353.06;;;6.27
71630;BMP280;59479;51.902;8.212;2023-02-02T03:10:08;101347.00;;;6.19
71630;BMP280;59479;51.902;8.212;2023-02-02T03:12:43;101347.81;;;6.18
71630;BMP280;59479;51.902;8.212;2023-02-02T03:15:09;101346.75;;;6.10
71630;BMP280;59479;51.902;8.212;2023-02-02T03:17:34;101352.84;;;6.20
71630;BMP280;59479;51.902;8.212;2023-02-02T03:19:59;101355.41;;;6.21
71630;BMP280;59479;51.902;8.212;2023-02-02T03:22:25;101351.88;;;6.15
71630;BMP280;59479;51.902;8.212;2023-02-02T03:24:50;101353.69;;;6.20
71630;BMP280;59479;51.902;8.212;2023-02-02T03:27:15;101355.69;;;6.04
71630;BMP280;59479;51.902;8.212;2023-02-02T03:29:41;101354.91;;;6.05
71630;BMP280;59479;51.902;8.212;2023-02-02T03:32:06;101348.44;;;6.11
71630;BMP280;59479;51.902;8.212;2023-02-02T03:34:31;101351.19;;;6.20
71630;BMP280;59479;51.902;8.212;2023-02-02T03:36:57;101351.06;;;6.16
71630;BMP280;59479;51.902;8.212;2023-02-02T03:39:22;101351.53;;;6.32
71630;BMP280;59479;51.902;8.212;2023-02-02T03:41:47;101353.00;;;6.26
71630;BMP280;59479;51.902;8.212;2023-02-02T03:44:13;101353.94;;;6.28
71630;BMP280;59479;51.902;8.212;2023-02-02T03:46:38;101352.03;;;6.21
71630;BMP280;59479;51.902;8.212;2023-02-02T03:49:03;101365.50;;;6.26
71630;BMP280;59479;51.902;8.212;2023-02-02T03:51:28;101361.44;;;6.29
71630;BMP280;59479;51.902;8.212;2023-02-02T03:53:54;101362.94;;;6.24
71630;BMP280;59479;51.902;8.212;2023-02-02T03:56:19;101352.56;;;6.38
71630;BMP280;59479;51.902;8.212;2023-02-02T03:58:45;101350.03;;;6.37
71630;BMP280;59479;51.902;8.212;2023-02-02T04:01:12;101353.59;;;6.45
71630;BMP280;59479;51.902;8.212;2023-02-02T04:03:38;101366.78;;;6.41
71630;BMP280;59479;51.902;8.212;2023-02-02T04:06:03;101372.78;;;6.46
71630;BMP280;59479;51.902;8.212;2023-02-02T04:08:29;101358.66;;;6.48
71630;BMP280;59479;51.902;8.212;2023-02-02T04:10:55;101361.31;;;6.54
71630;BMP280;59479;51.902;8.212;2023-02-02T04:13:21;101365.59;;;6.58
71630;BMP280;59479;51.902;8.212;2023-02-02T04:15:46;101370.84;;;6.67
71630;BMP280;59479;51.902;8.212;2023-02-02T04:18:11;101371.78;;;6.70
71630;BMP280;59479;51.902;8.212;2023-02-02T04:20:36;101364.13;;;6.66
71630;BMP280;59479;51.902;8.212;2023-02-02T04:23:02;101366.63;;;6.66
71630;BMP280;59479;51.902;8.212;2023-02-02T04:25:27;101369.41;;;6.74
71630;BMP280;59479;51.902;8.212;2023-02-02T04:27:52;101356.78;;;6.70
71630;BMP280;59479;51.902;8.212;2023-02-02T04:30:18;101365.06;;;6.68
71630;BMP280;59479;51.902;8.212;2023-02-02T04:32:46;101369.22;;;6.68
71630;BMP280;59479;51.902;8.212;2023-02-02T04:35:12;101372.59;;;6.70
71630;BMP280;59479;51.902;8.212;2023-02-02T04:37:37;101370.22;;;6.44
71630;BMP280;59479;51.902;8.212;2023-02-02T04:40:03;101376.59;;;6.35
71630;BMP280;59479;51.902;8.212;2023-02-02T04:42:29;101374.97;;;6.37
71630;BMP280;59479;51.902;8.212;2023-02-02T04:44:56;101375.28;;;6.47
71630;BMP280;59479;51.902;8.212;2023-02-02T04:47:21;101386.78;;;6.42
71630;BMP280;59479;51.902;8.212;2023-02-02T04:49:46;101389.47;;;6.48
71630;BMP280;59479;51.902;8.212;2023-02-02T04:52:12;101380.66;;;6.61
71630;BMP280;59479;51.902;8.212;2023-02-02T04:54:37;101370.06;;;6.69
71630;BMP280;59479;51.902;8.212;2023-02-02T04:57:02;101374.28;;;6.70
71630;BMP280;59479;51.902;8.212;2023-02-02T04:59:28;101373.97;;;6.60
71630;BMP280;59479;51.902;8.212;2023-02-02T05:01:57;101371.63;;;6.64
71630;BMP280;59479;51.902;8.212;2023-02-02T05:04:23;101375.59;;;6.58
71630;BMP280;59479;51.902;8.212;2023-02-02T05:06:48;101373.47;;;6.71
71630;BMP280;59479;51.902;8.212;2023-02-02T05:09:13;101374.50;;;6.77
71630;BMP280;59479;51.902;8.212;2023-02-02T05:11:39;101374.50;;;6.77
71630;BMP280;59479;51.902;8.212;2023-02-02T05:14:05;101376.06;;;6.75
71630;BMP280;59479;51.902;8.212;2023-02-02T05:16:31;101376.63;;;6.66
71630;BMP280;59479;51.902;8.212;2023-02-02T05:18:56;101380.75;;;6.64
71630;BMP280;59479;51.902;8.212;2023-02-02T05:21:23;101380.94;;;6.69
71630;BMP280;59479;51.902;8.212;2023-02-02T05:23:49;101382.63;;;6.72
71630;BMP280;59479;51.902;8.212;2023-02-02T05:26:22;101377.00;;;6.79
71630;BMP280;59479;51.902;8.212;2023-02-02T05:28:51;101371.03;;;6.74
71630;BMP280;59479;51.902;8.212;2023-02-02T05:31:18;101379.94;;;6.65
71630;BMP280;59479;51.902;8.212;2023-02-02T05:33:43;101384.91;;;6.63
71630;BMP280;59479;51.902;8.212;2023-02-02T05:36:09;101372.75;;;6.75
71630;BMP280;59479;51.902;8.212;2023-02-02T05:38:34;101386.00;;;6.72
71630;BMP280;59479;51.902;8.212;2023-02-02T05:41:00;101369.31;;;6.71
71630;BMP280;59479;51.902;8.212;2023-02-02T05:43:27;101375.16;;;6.72
71630;BMP280;59479;51.902;8.212;2023-02-02T05:45:53;101376.72;;;6.68
71630;BMP280;59479;51.902;8.212;2023-02-02T05:48:19;101380.06;;;6.69
71630;BMP280;59479;51.902;8.212;2023-02-02T05:51:05;101393.66;;;6.78
71630;BMP280;59479;51.902;8.212;2023-02-02T05:53:31;101386.94;;;6.76
71630;BMP280;59479;51.902;8.212;2023-02-02T05:55:57;101389.38;;;6.74
71630;BMP280;59479;51.902;8.212;2023-02-02T05:58:23;101393.97;;;6.60
71630;BMP280;59479;51.902;8.212;2023-02-02T06:00:48;101403.22;;;6.64
71630;BMP280;59479;51.902;8.212;2023-02-02T06:03:13;101411.75;;;6.70
71630;BMP280;59479;51.902;8.212;2023-02-02T06:05:39;101396.00;;;6.72
71630;BMP280;59479;51.902;8.212;2023-02-02T06:08:04;101410.91;;;6.69
71630;BMP280;59479;51.902;8.212;2023-02-02T06:10:33;101402.63;;;6.72
71630;BMP280;59479;51.902;8.212;2023-02-02T06:12:58;101421.13;;;6.78
71630;BMP280;59479;51.902;8.212;2023-02-02T06:15:23;101412.91;;;6.82
71630;BMP280;59479;51.902;8.212;2023-02-02T06:17:51;101410.66;;;6.91
71630;BMP280;59479;51.902;8.212;2023-02-02T06:20:16;101408.22;;;6.93
71630;BMP280;59479;51.902;8.212;2023-02-02T06:25:33;101406.31;;;6.84
71630;BMP280;59479;51.902;8.212;2023-02-02T06:27:59;101410.59;;;6.88
71630;BMP280;59479;51.902;8.212;2023-02-02T06:30:35;101418.41;;;7.00
71630;BMP280;59479;51.902;8.212;2023-02-02T06:33:01;101412.69;;;7.04
71630;BMP280;59479;51.902;8.212;2023-02-02T06:35:39;101415.25;;;7.07
71630;BMP280;59479;51.902;8.212;2023-02-02T06:38:04;101427.03;;;7.11
71630;BMP280;59479;51.902;8.212;2023-02-02T06:40:33;101427.97;;;7.14
71630;BMP280;59479;51.902;8.212;2023-02-02T06:43:20;101430.34;;;7.10
71630;BMP280;59479;51.902;8.212;2023-02-02T06:45:48;101430.50;;;7.16
71630;BMP280;59479;51.902;8.212;2023-02-02T06:48:14;101443.66;;;7.09
71630;BMP280;59479;51.902;8.212;2023-02-02T06:50:49;101432.09;;;7.14
71630;BMP280;59479;51.902;8.212;2023-02-02T06:53:18;101442.09;;;7.14
71630;BMP280;59479;51.902;8.212;2023-02-02T06:56:19;101437.00;;;7.10
71630;BMP280;59479;51.902;8.212;2023-02-02T06:58:48;101442.13;;;7.15
71630;BMP280;59479;51.902;8.212;2023-02-02T07:01:13;101446.63;;;7.27
71630;BMP280;59479;51.902;8.212;2023-02-02T07:03:42;101448.19;;;7.23
71630;BMP280;59479;51.902;8.212;2023-02-02T07:06:20;101446.44;;;7.19
71630;BMP280;59479;51.902;8.212;2023-02-02T07:08:48;101445.56;;;7.19
71630;BMP280;59479;51.902;8.212;2023-02-02T07:11:22;101444.84;;;7.23
71630;BMP280;59479;51.902;8.212;2023-02-02T07:13:48;101451.63;;;7.27
71630;BMP280;59479;51.902;8.212;2023-02-02T07:16:15;101446.53;;;7.24
71630;BMP280;59479;51.902;8.212;2023-02-02T07:18:41;101450.66;;;7.22
71630;BMP280;59479;51.902;8.212;2023-02-02T07:21:21;101454.03;;;7.24
71630;BMP280;59479;51.902;8.212;2023-02-02T07:23:50;101456.34;;;7.16
71630;BMP280;59479;51.902;8.212;2023-02-02T07:26:17;101464.59;;;7.14
71630;BMP280;59479;51.902;8.212;2023-02-02T07:28:46;101462.88;;;7.11
71630;BMP280;59479;51.902;8.212;2023-02-02T07:31:22;101480.56;;;7.19
71630;BMP280;59479;51.902;8.212;2023-02-02T07:33:49;101487.97;;;7.14
71630;BMP280;59479;51.902;8.212;2023-02-02T07:36:17;101481.94;;;7.08
71630;BMP280;59479;51.902;8.212;2023-02-02T07:38:55;101488.00;;;7.16
71630;BMP280;59479;51.902;8.212;2023-02-02T07:41:26;101496.84;;;7.05
71630;BMP280;59479;51.902;8.212;2023-02-02T07:44:13;101500.97;;;7.03
71630;BMP280;59479;51.902;8.212;2023-02-02T07:46:43;101495.00;;;6.98
71630;BMP280;59479;51.902;8.212;2023-02-02T07:49:40;101495.69;;;6.93
71630;BMP280;59479;51.902;8.212;2023-02-02T07:52:10;101492.44;;;6.97
71630;BMP280;59479;51.902;8.212;2023-02-02T07:54:35;101497.59;;;7.01
71630;BMP280;59479;51.902;8.212;2023-02-02T07:57:08;101503.72;;;7.12
71630;BMP280;59479;51.902;8.212;2023-02-02T07:59:46;101508.91;;;7.18
71630;BMP280;59479;51.902;8.212;2023-02-02T08:02:15;101513.06;;;7.19
71630;BMP280;59479;51.902;8.212;2023-02-02T08:04:45;101509.25;;;7.02
71630;BMP280;59479;51.902;8.212;2023-02-02T08:07:12;101511.84;;;7.05
71630;BMP280;59479;51.902;8.212;2023-02-02T08:09:37;101507.59;;;7.01
71630;BMP280;59479;51.902;8.212;2023-02-02T08:12:03;101508.56;;;7.06
71630;BMP280;59479;51.902;8.212;2023-02-02T08:14:28;101513.75;;;7.13
71630;BMP280;59479;51.902;8.212;2023-02-02T08:16:54;101509.50;;;7.10
71630;BMP280;59479;51.902;8.212;2023-02-02T08:19:19;101518.81;;;7.15
71630;BMP280;59479;51.902;8.212;2023-02-02T08:21:44;101519.44;;;7.08
71630;BMP280;59479;51.902;8.212;2023-02-02T08:24:10;101522.53;;;7.00
71630;BMP280;59479;51.902;8.212;2023-02-02T08:26:35;101520.88;;;7.00
71630;BMP280;59479;51.902;8.212;2023-02-02T08:29:04;101524.34;;;7.05
71630;BMP280;59479;51.902;8.212;2023-02-02T08:31:32;101525.28;;;7.09
71630;BMP280;59479;51.902;8.212;2023-02-02T08:33:58;101525.28;;;7.09
71630;BMP280;59479;51.902;8.212;2023-02-02T08:36:25;101522.03;;;7.11
71630;BMP280;59479;51.902;8.212;2023-02-02T08:38:51;101526.25;;;7.13
71630;BMP280;59479;51.902;8.212;2023-02-02T08:41:20;101525.41;;;7.13
71630;BMP280;59479;51.902;8.212;2023-02-02T08:43:45;101528.81;;;7.15
71630;BMP280;59479;51.902;8.212;2023-02-02T08:46:12;101533.97;;;7.21
71630;BMP280;59479;51.902;8.212;2023-02-02T08:48:38;101535.38;;;7.11
71630;BMP280;59479;51.902;8.212;2023-02-02T08:51:05;101537.91;;;7.13
71630;BMP280;59479;51.902;8.212;2023-02-02T08:53:31;101534.50;;;7.10
71630;BMP280;59479;51.902;8.212;2023-02-02T08:55:59;101545.47;;;7.14
71630;BMP280;59479;51.902;8.212;2023-02-02T08:58:25;101558.00;;;7.16
71630;BMP280;59479;51.902;8.212;2023-02-02T09:00:50;101552.00;;;7.10
71630;BMP280;59479;51.902;8.212;2023-02-02T09:03:15;101559.44;;;7.08
71630;BMP280;59479;51.902;8.212;2023-02-02T09:05:44;101568.06;;;7.17
71630;BMP280;59479;51.902;8.212;2023-02-02T09:08:16;101570.72;;;7.23
71630;BMP280;59479;51.902;8.212;2023-02-02T09:10:52;101582.19;;;7.17
71630;BMP280;59479;51.902;8.212;2023-02-02T09:13:22;101583.81;;;7.15
71630;BMP280;59479;51.902;8.212;2023-02-02T09:16:15;101578.13;;;7.20
71630;BMP280;59479;51.902;8.212;2023-02-02T09:19:15;101580.66;;;7.22
71630;BMP280;59479;51.902;8.212;2023-02-02T09:21:54;101581.53;;;7.24
71630;BMP280;59479;51.902;8.212;2023-02-02T09:27:29;101591.66;;;7.27
71630;BMP280;59479;51.902;8.212;2023-02-02T09:30:03;101589.91;;;7.24
71630;BMP280;59479;51.902;8.212;2023-02-02T09:32:29;101609.44;;;7.36
71630;BMP280;59479;51.902;8.212;2023-02-02T09:35:18;101615.81;;;7.26
71630;BMP280;59479;51.902;8.212;2023-02-02T09:37:50;101611.53;;;7.22
71630;BMP280;59479;51.902;8.212;2023-02-02T09:49:59;101624.25;;;7.30
71630;BMP280;59479;51.902;8.212;2023-02-02T09:52:42;101625.09;;;7.30
71630;BMP280;59479;51.902;8.212;2023-02-02T09:55:40;101629.44;;;7.36
71630;BMP280;59479;51.902;8.212;2023-02-02T09:58:22;101637.09;;;7.42
71630;BMP280;59479;51.902;8.212;2023-02-02T10:04:21;101647.81;;;7.38
71630;BMP280;59479;51.902;8.212;2023-02-02T10:07:03;101654.44;;;7.36
71630;BMP280;59479;51.902;8.212;2023-02-02T10:10:04;101653.53;;;7.34
71630;BMP280;59479;51.902;8.212;2023-02-02T10:12:42;101654.41;;;7.34
71630;BMP280;59479;51.902;8.212;2023-02-02T10:27:36;101659.50;;;7.39
71630;BMP280;59479;51.902;8.212;2023-02-02T10:30:25;101668.72;;;7.40
71630;BMP280;59479;51.902;8.212;2023-02-02T10:44:56;101674.34;;;7.33
71630;BMP280;59479;51.902;8.212;2023-02-02T10:47:33;101682.94;;;7.42
71630;BMP280;59479;51.902;8.212;2023-02-02T10:50:23;101682.69;;;7.33
71630;BMP280;59479;51.902;8.212;2023-02-02T10:56:39;101685.97;;;7.31
71630;BMP280;59479;51.902;8.212;2023-02-02T10:59:31;101685.25;;;7.35
71630;BMP280;59479;51.902;8.212;2023-02-02T11:14:12;101689.56;;;7.40
71630;BMP280;59479;51.902;8.212;2023-02-02T11:17:08;101687.94;;;7.41
71630;BMP280;59479;51.902;8.212;2023-02-02T11:19:48;101699.72;;;7.45
71630;BMP280;59479;51.902;8.212;2023-02-02T11:22:36;101693.81;;;7.43
71630;BMP280;59479;51.902;8.212;2023-02-02T12:05:38;101702.44;;;7.52
71630;BMP280;59479;51.902;8.212;2023-02-02T12:16:46;101712.44;;;7.52
71630;BMP280;59479;51.902;8.212;2023-02-02T12:19:46;101718.47;;;7.58
71630;BMP280;59479;51.902;8.212;2023-02-02T12:31:49;101723.31;;;7.53
71630;BMP280;59479;51.902;8.212;2023-02-02T12:43:51;101707.81;;;7.65
71630;BMP280;59479;51.902;8.212;2023-02-02T12:49:46;101694.31;;;7.59
71630;BMP280;59479;51.902;8.212;2023-02-02T12:52:10;101697.75;;;7.62
71630;BMP280;59479;51.902;8.212;2023-02-02T13:18:53;101715.50;;;7.71
71630;BMP280;59479;51.902;8.212;2023-02-02T13:21:20;101721.41;;;7.73
71630;BMP280;59479;51.902;8.212;2023-02-02T13:23:53;101704.97;;;7.81
71630;BMP280;59479;51.902;8.212;2023-02-02T13:26:23;101724.09;;;7.79
71630;BMP280;59479;51.902;8.212;2023-02-02T13:28:56;101710.06;;;7.84
71630;BMP280;59479;51.902;8.212;2023-02-02T13:31:34;101706.78;;;7.87
71630;BMP280;59479;51.902;8.212;2023-02-02T13:34:24;101713.44;;;7.86
71630;BMP280;59479;51.902;8.212;2023-02-02T13:36:59;101720.91;;;7.85
71630;BMP280;59479;51.902;8.212;2023-02-02T13:51:28;101721.59;;;7.79
71630;BMP280;59479;51.902;8.212;2023-02-02T14:00:15;101718.13;;;7.74
71630;BMP280;59479;51.902;8.212;2023-02-02T14:02:46;101722.38;;;7.78
71630;BMP280;59479;51.902;8.212;2023-02-02T14:08:06;101715.81;;;7.82
71630;BMP280;59479;51.902;8.212;2023-02-02T14:10:40;101718.22;;;7.79
71630;BMP280;59479;51.902;8.212;2023-02-02T14:13:16;101729.09;;;7.79
71630;BMP280;59479;51.902;8.212;2023-02-02T14:16:03;101726.66;;;7.81
71630;BMP280;59479;51.902;8.212;2023-02-02T14:23:58;101727.97;;;7.70
71630;BMP280;59479;51.902;8.212;2023-02-02T14:39:27;101743.25;;;7.79
71630;BMP280;59479;51.902;8.212;2023-02-02T14:42:13;101737.25;;;7.72
71630;BMP280;59479;51.902;8.212;2023-02-02T14:47:47;101743.09;;;7.73
71630;BMP280;59479;51.902;8.212;2023-02-02T14:50:24;101747.25;;;7.72
71630;BMP280;59479;51.902;8.212;2023-02-02T14:53:27;101745.69;;;7.77
71630;BMP280;59479;51.902;8.212;2023-02-02T14:56:07;101758.84;;;7.70
71630;BMP280;59479;51.902;8.212;2023-02-02T14:58:54;101752.88;;;7.65
71630;BMP280;59479;51.902;8.212;2023-02-02T15:01:27;101757.81;;;7.64
71630;BMP280;59479;51.902;8.212;2023-02-02T15:04:21;101748.78;;;7.69
71630;BMP280;59479;51.902;8.212;2023-02-02T15:06:49;101757.66;;;7.58
71630;BMP280;59479;51.902;8.212;2023-02-02T15:15:12;101755.31;;;7.64
71630;BMP280;59479;51.902;8.212;2023-02-02T15:22:56;101758.59;;;7.61
71630;BMP280;59479;51.902;8.212;2023-02-02T15:28:16;101766.16;;;7.63
71630;BMP280;59479;51.902;8.212;2023-02-02T15:30:48;101775.22;;;7.59
71630;BMP280;59479;51.902;8.212;2023-02-02T15:33:36;101772.88;;;7.65
71630;BMP280;59479;51.902;8.212;2023-02-02T15:36:08;101775.22;;;7.59
71630;BMP280;59479;51.902;8.212;2023-02-02T15:38:36;101775.06;;;7.55
71630;BMP280;59479;51.902;8.212;2023-02-02T15:41:13;101776.78;;;7.56
71630;BMP280;59479;51.902;8.212;2023-02-02T15:43:40;101781.28;;;7.40
71630;BMP280;59479;51.902;8.212;2023-02-02T15:46:10;101785.66;;;7.47
71630;BMP280;59479;51.902;8.212;2023-02-02T15:48:36;101776.63;;;7.52
71630;BMP280;59479;51.902;8.212;2023-02-02T15:51:04;101779.13;;;7.52
71630;BMP280;59479;51.902;8.212;2023-02-02T15:55:58;101780.22;;;7.59
71630;BMP280;59479;51.902;8.212;2023-02-02T15:58:32;101781.91;;;7.60
71630;BMP280;59479;51.902;8.212;2023-02-02T16:01:04;101780.31;;;7.62
71630;BMP280;59479;51.902;8.212;2023-02-02T16:03:35;101782.25;;;7.45
71630;BMP280;59479;51.902;8.212;2023-02-02T16:06:03;101788.53;;;7.58
71630;BMP280;59479;51.902;8.212;2023-02-02T16:08:30;101788.41;;;7.55
71630;BMP280;59479;51.902;8.212;2023-02-02T16:13:27;101777.47;;;7.52
71630;BMP280;59479;51.902;8.212;2023-02-02T16:15:55;101778.16;;;7.47
71630;BMP280;59479;51.902;8.212;2023-02-02T16:18:21;101790.13;;;7.56
71630;BMP280;59479;51.902;8.212;2023-02-02T16:20:47;101791.91;;;7.60
71630;BMP280;59479;51.902;8.212;2023-02-02T16:23:15;101797.00;;;7.63
71630;BMP280;59479;51.902;8.212;2023-02-02T16:25:48;101796.03;;;7.58
71630;BMP280;59479;51.902;8.212;2023-02-02T16:28:17;101780.13;;;7.56
71630;BMP280;59479;51.902;8.212;2023-02-02T16:30:44;101787.47;;;7.52
71630;BMP280;59479;51.902;8.212;2023-02-02T16:33:26;101785.13;;;7.56
71630;BMP280;59479;51.902;8.212;2023-02-02T16:35:52;101779.50;;;7.63
71630;BMP280;59479;51.902;8.212;2023-02-02T16:38:35;101775.31;;;7.62
71630;BMP280;59479;51.902;8.212;2023-02-02T16:41:11;101784.44;;;7.62
71630;BMP280;59479;51.902;8.212;2023-02-02T16:43:41;101787.91;;;7.65
71630;BMP280;59479;51.902;8.212;2023-02-02T16:46:13;101788.88;;;7.70
71630;BMP280;59479;51.902;8.212;2023-02-02T16:48:42;101788.81;;;7.69
71630;BMP280;59479;51.902;8.212;2023-02-02T16:51:21;101792.31;;;7.72
71630;BMP280;59479;51.902;8.212;2023-02-02T16:56:34;101796.59;;;7.76
71630;BMP280;59479;51.902;8.212;2023-02-02T16:59:06;101796.47;;;7.73
71630;BMP280;59479;51.902;8.212;2023-02-02T17:01:41;101807.56;;;7.81
71630;BMP280;59479;51.902;8.212;2023-02-02T17:04:15;101808.28;;;7.77
71630;BMP280;59479;51.902;8.212;2023-02-02T17:06:42;101802.63;;;7.83
71630;BMP280;59479;51.902;8.212;2023-02-02T17:14:32;101802.91;;;7.93
71630;BMP280;59479;51.902;8.212;2023-02-02T17:16:58;101802.97;;;7.94
71630;BMP280;59479;51.902;8.212;2023-02-02T17:19:27;101807.94;;;7.93
71630;BMP280;59479;51.902;8.212;2023-02-02T17:21:53;101801.16;;;7.89
71630;BMP280;59479;51.902;8.212;2023-02-02T17:24:19;101810.38;;;7.92
71630;BMP280;59479;51.902;8.212;2023-02-02T17:26:44;101812.34;;;8.01
71630;BMP280;59479;51.902;8.212;2023-02-02T17:29:14;101809.63;;;7.94
71630;BMP280;59479;51.902;8.212;2023-02-02T17:31:40;101813.66;;;7.89
71630;BMP280;59479;51.902;8.212;2023-02-02T17:34:10;101807.84;;;7.90
71630;BMP280;59479;51.902;8.212;2023-02-02T17:36:37;101807.00;;;7.90
71630;BMP280;59479;51.902;8.212;2023-02-02T17:39:03;101809.88;;;7.75
71630;BMP280;59479;51.902;8.212;2023-02-02T17:41:54;101804.34;;;7.85
71630;BMP280;59479;51.902;8.212;2023-02-02T17:44:20;101815.97;;;7.83
71630;BMP280;59479;51.902;8.212;2023-02-02T17:46:57;101813.31;;;7.79
71630;BMP280;59479;51.902;8.212;2023-02-02T17:49:22;101814.94;;;7.77
71630;BMP280;59479;51.902;8.212;2023-02-02T17:51:58;101817.03;;;7.63
71630;BMP280;59479;51.902;8.212;2023-02-02T17:54:29;101826.50;;;7.73
71630;BMP280;59479;51.902;8.212;2023-02-02T17:57:03;101825.88;;;7.80
71630;BMP280;59479;51.902;8.212;2023-02-02T17:59:29;101815.22;;;7.86
71630;BMP280;59479;51.902;8.212;2023-02-02T18:01:55;101803.41;;;7.82
71630;BMP280;59479;51.902;8.212;2023-02-02T18:04:21;101805.03;;;7.80
71630;BMP280;59479;51.902;8.212;2023-02-02T18:06:48;101805.78;;;7.77
71630;BMP280;59479;51.902;8.212;2023-02-02T18:09:14;101810.81;;;7.79
71630;BMP280;59479;51.902;8.212;2023-02-02T18:11:39;101800.81;;;7.79
71630;BMP280;59479;51.902;8.212;2023-02-02T18:14:05;101801.94;;;7.88
71630;BMP280;59479;51.902;8.212;2023-02-02T18:16:30;101801.78;;;7.84
71630;BMP280;59479;51.902;8.212;2023-02-02T18:18:56;101808.03;;;7.96
71630;BMP280;59479;51.902;8.212;2023-02-02T18:21:22;101800.56;;;7.97
71630;BMP280;59479;51.902;8.212;2023-02-02T18:23:48;101798.53;;;7.86
71630;BMP280;59479;51.902;8.212;2023-02-02T18:26:15;101798.09;;;7.99
71630;BMP280;59479;51.902;8.212;2023-02-02T18:28:42;101797.97;;;7.94